Axtell, Kansas
Current Conditions -  °F | °C
As of 2:55 AM on Monday 22 Dec 2014 (Local Time) from KMYZ Reporting Station
Light Rain Light Rain  
Wind Chill: 37°   Ceiling: 500
Heat Index: 43°   Visibility: 5mi
Dew Point: 41°   Wind: 9mph
Humidity: 93%   Direction: 180°S
Pressure: 29.58"   Gusts: 16mph
Location:  39.87°N, 96.26°W
Report Text: KMYZ 220855Z AUTO 18008G14KT 5SM -RA OVC005 06/05 A2958 RMK AO2
Loading
Personal Weather Stations






























Interactive Weather Map New forecast layout! Learn more

10-Day Weather Forecast

Advertisements
Track Severe Weather on mobile